createdAt,value
2022-10-31T00:00:05.350Z,13.70
2022-10-31T00:01:05.224Z,14.00
2022-10-31T00:02:05.257Z,13.80
2022-10-31T00:03:05.196Z,13.80
2022-10-31T00:04:05.177Z,14.40
2022-10-31T00:05:05.178Z,13.60
2022-10-31T00:06:05.150Z,14.70
2022-10-31T00:07:05.141Z,14.60
2022-10-31T00:08:05.123Z,15.10
2022-10-31T00:09:05.124Z,16.40
2022-10-31T00:10:05.094Z,15.20
2022-10-31T00:11:05.090Z,14.60
2022-10-31T00:12:05.070Z,14.60
2022-10-31T00:13:05.058Z,15.50
2022-10-31T00:14:05.051Z,15.60
2022-10-31T00:15:05.032Z,15.50
2022-10-31T00:16:05.023Z,15.40
2022-10-31T00:17:05.008Z,15.20
2022-10-31T00:18:05.047Z,16.10
2022-10-31T00:19:05.035Z,15.20
2022-10-31T00:20:05.006Z,16.00
2022-10-31T00:21:04.951Z,15.30
2022-10-31T00:22:04.941Z,15.20
2022-10-31T00:23:04.923Z,14.60
2022-10-31T00:24:04.954Z,16.60
2022-10-31T00:25:04.895Z,16.40
2022-10-31T00:26:04.879Z,15.50
2022-10-31T00:27:04.871Z,15.60
2022-10-31T00:28:04.923Z,14.50
2022-10-31T00:29:04.889Z,14.40
2022-10-31T00:30:04.842Z,14.40
2022-10-31T00:31:04.818Z,14.50
2022-10-31T00:32:04.800Z,14.60
2022-10-31T00:33:04.790Z,14.90
2022-10-31T00:34:04.784Z,14.20
2022-10-31T00:35:04.774Z,14.90
2022-10-31T00:36:04.752Z,15.60
2022-10-31T00:37:04.787Z,15.20
2022-10-31T00:38:04.719Z,14.90
2022-10-31T00:39:04.749Z,14.50
2022-10-31T00:40:04.693Z,14.20
2022-10-31T00:41:04.689Z,14.20
2022-10-31T00:42:04.672Z,15.00
2022-10-31T00:43:04.995Z,14.50
2022-10-31T00:44:04.659Z,15.10
2022-10-31T00:45:04.646Z,15.20
2022-10-31T00:46:04.631Z,14.10
2022-10-31T00:47:04.617Z,14.40
2022-10-31T00:48:04.620Z,14.80
2022-10-31T00:49:04.595Z,15.10
2022-10-31T00:50:04.557Z,14.20
2022-10-31T00:51:04.553Z,15.90
2022-10-31T00:52:04.530Z,15.60
2022-10-31T00:53:04.530Z,15.30
2022-10-31T00:54:04.533Z,14.80
2022-10-31T00:55:04.578Z,14.70
2022-10-31T00:56:04.489Z,15.30
2022-10-31T00:57:04.519Z,14.70
2022-10-31T00:58:04.912Z,16.00
2022-10-31T00:59:04.479Z,16.10
2022-10-31T01:00:04.440Z,15.70
2022-10-31T01:01:04.536Z,15.90
2022-10-31T01:02:04.484Z,16.80
2022-10-31T01:03:04.426Z,16.40
2022-10-31T01:04:04.372Z,16.00
2022-10-31T01:05:04.368Z,16.70
2022-10-31T01:06:04.360Z,16.40
2022-10-31T01:07:04.341Z,16.30
2022-10-31T01:08:04.322Z,17.00
2022-10-31T01:09:04.317Z,17.10
2022-10-31T01:10:04.309Z,16.20
2022-10-31T01:11:04.368Z,16.50
2022-10-31T01:12:04.290Z,15.80
2022-10-31T01:13:04.258Z,15.70
2022-10-31T01:14:04.272Z,15.90
2022-10-31T01:15:04.246Z,16.80
2022-10-31T01:16:04.277Z,15.60
2022-10-31T01:17:04.211Z,16.30
2022-10-31T01:18:04.588Z,16.20
2022-10-31T01:19:04.476Z,16.40
2022-10-31T01:20:04.250Z,16.50
2022-10-31T01:21:04.163Z,17.30
2022-10-31T01:22:04.143Z,17.20
2022-10-31T01:23:04.171Z,16.80
2022-10-31T01:24:04.118Z,16.60
2022-10-31T01:25:04.155Z,15.60
2022-10-31T01:26:04.175Z,17.10
2022-10-31T01:27:04.075Z,18.00
2022-10-31T01:28:04.062Z,15.60
2022-10-31T01:29:04.073Z,16.90
2022-10-31T01:30:04.066Z,16.10
2022-10-31T01:31:04.052Z,15.90
2022-10-31T01:32:04.010Z,15.80
2022-10-31T01:33:04.038Z,16.10
2022-10-31T01:34:03.985Z,15.70
2022-10-31T01:35:04.017Z,15.60
2022-10-31T01:36:03.962Z,16.20
2022-10-31T01:37:03.972Z,17.40
2022-10-31T01:38:03.940Z,17.70
2022-10-31T01:39:03.912Z,17.40
2022-10-31T01:40:03.922Z,17.90
2022-10-31T01:41:03.887Z,16.50
2022-10-31T01:42:03.884Z,17.50
2022-10-31T01:43:03.865Z,17.80
2022-10-31T01:44:03.895Z,16.70
2022-10-31T01:45:03.850Z,17.40
2022-10-31T01:46:03.858Z,17.70
2022-10-31T01:47:03.840Z,18.80
2022-10-31T01:48:03.803Z,18.30
2022-10-31T01:49:03.785Z,18.80
2022-10-31T01:50:03.822Z,18.10
2022-10-31T01:51:03.759Z,18.10
2022-10-31T01:52:03.797Z,18.70
2022-10-31T01:53:03.730Z,19.40
2022-10-31T01:54:03.719Z,18.60
2022-10-31T01:55:03.715Z,18.60
2022-10-31T01:56:03.695Z,19.10
2022-10-31T01:57:03.680Z,18.80
2022-10-31T01:58:04.068Z,17.80
2022-10-31T01:59:03.672Z,17.50
2022-10-31T02:00:03.685Z,18.20
2022-10-31T02:01:06.881Z,18.20
2022-10-31T02:02:03.770Z,17.30
2022-10-31T02:03:03.947Z,18.20
2022-10-31T02:04:03.592Z,19.10
2022-10-31T02:05:03.572Z,18.00
2022-10-31T02:06:03.632Z,18.10
2022-10-31T02:07:03.556Z,18.50
2022-10-31T02:08:03.565Z,18.20
2022-10-31T02:09:03.529Z,18.30
2022-10-31T02:10:03.511Z,18.40
2022-10-31T02:11:03.504Z,19.20
2022-10-31T02:12:03.483Z,18.30
2022-10-31T02:13:03.718Z,18.80
2022-10-31T02:14:03.463Z,18.90
2022-10-31T02:15:03.440Z,19.30
2022-10-31T02:16:03.460Z,18.20
2022-10-31T02:17:03.426Z,19.00
2022-10-31T02:18:03.751Z,19.40
2022-10-31T02:19:03.405Z,19.50
2022-10-31T02:20:03.380Z,18.70
2022-10-31T02:21:03.429Z,19.40
2022-10-31T02:22:03.355Z,19.10
2022-10-31T02:23:03.369Z,19.00
2022-10-31T02:24:03.326Z,18.30
2022-10-31T02:25:03.325Z,18.50
2022-10-31T02:26:03.319Z,17.40
2022-10-31T02:27:03.321Z,17.30
2022-10-31T02:28:03.786Z,19.60
2022-10-31T02:29:03.294Z,18.40
2022-10-31T02:30:03.248Z,20.10
2022-10-31T02:31:03.259Z,19.80
2022-10-31T02:32:03.219Z,20.20
2022-10-31T02:33:03.768Z,19.20
2022-10-31T02:34:03.205Z,20.20
2022-10-31T02:35:03.206Z,20.40
2022-10-31T02:36:03.197Z,19.90
2022-10-31T02:37:03.149Z,19.90
2022-10-31T02:38:03.150Z,20.50
2022-10-31T02:39:03.133Z,20.00
2022-10-31T02:40:03.114Z,19.70
2022-10-31T02:41:03.109Z,19.80
2022-10-31T02:42:03.101Z,19.60
2022-10-31T02:43:03.545Z,20.60
2022-10-31T02:44:03.069Z,20.50
2022-10-31T02:45:03.046Z,21.10
2022-10-31T02:46:03.081Z,22.00
2022-10-31T02:47:03.019Z,22.80
2022-10-31T02:48:03.165Z,22.80
2022-10-31T02:49:03.000Z,23.30
2022-10-31T02:50:02.987Z,23.30
2022-10-31T02:51:02.983Z,23.30
2022-10-31T02:52:02.977Z,23.40
2022-10-31T02:53:02.952Z,24.50
2022-10-31T02:54:02.937Z,22.80
2022-10-31T02:55:02.977Z,21.60
2022-10-31T02:56:02.984Z,21.50
2022-10-31T02:57:02.928Z,21.90
2022-10-31T02:58:03.289Z,21.40
2022-10-31T02:59:02.870Z,22.80
2022-10-31T03:00:02.899Z,23.40
2022-10-31T03:01:02.959Z,24.40
2022-10-31T03:02:02.999Z,23.10
2022-10-31T03:03:03.120Z,23.50
2022-10-31T03:04:02.823Z,23.80
2022-10-31T03:05:02.783Z,24.40
2022-10-31T03:06:02.788Z,25.10
2022-10-31T03:07:02.765Z,23.80
2022-10-31T03:08:02.756Z,24.10
2022-10-31T03:09:02.733Z,24.10
2022-10-31T03:10:02.771Z,24.20
2022-10-31T03:11:02.718Z,24.10
2022-10-31T03:12:02.704Z,24.00
2022-10-31T03:13:02.955Z,24.60
2022-10-31T03:14:02.686Z,24.00
2022-10-31T03:15:02.651Z,24.20
2022-10-31T03:16:02.646Z,22.40
2022-10-31T03:17:02.669Z,24.50
2022-10-31T03:18:03.090Z,23.40
2022-10-31T03:19:02.602Z,22.90
2022-10-31T03:20:02.604Z,22.60
2022-10-31T03:21:02.582Z,23.50
2022-10-31T03:22:02.577Z,23.30
2022-10-31T03:23:02.551Z,23.80
2022-10-31T03:24:02.549Z,24.30
2022-10-31T03:25:02.539Z,23.50
2022-10-31T03:26:02.533Z,22.80
2022-10-31T03:27:02.530Z,24.20
2022-10-31T03:28:02.992Z,23.50
2022-10-31T03:29:02.477Z,22.40
2022-10-31T03:30:02.476Z,23.30
2022-10-31T03:31:04.850Z,23.10
2022-10-31T03:32:02.457Z,23.10
2022-10-31T03:33:02.617Z,23.20
2022-10-31T03:34:02.415Z,24.00
2022-10-31T03:35:02.395Z,23.70
2022-10-31T03:36:02.383Z,24.20
2022-10-31T03:37:02.406Z,22.20
2022-10-31T03:38:06.826Z,22.10
2022-10-31T03:39:02.355Z,21.90
2022-10-31T03:40:02.352Z,22.30
2022-10-31T03:41:02.316Z,22.00
2022-10-31T03:42:02.318Z,22.10
2022-10-31T03:43:02.561Z,22.60
2022-10-31T03:44:02.285Z,22.20
2022-10-31T03:45:02.294Z,22.00
2022-10-31T03:46:02.261Z,21.90
2022-10-31T03:47:02.236Z,21.90
2022-10-31T03:48:02.633Z,21.60
2022-10-31T03:49:02.225Z,22.00
2022-10-31T03:50:02.221Z,21.50
2022-10-31T03:51:02.194Z,22.20
2022-10-31T03:52:02.177Z,22.40
2022-10-31T03:53:02.196Z,23.00
2022-10-31T03:54:02.151Z,21.70
2022-10-31T03:55:02.145Z,21.50
2022-10-31T03:56:02.131Z,20.80
2022-10-31T03:57:02.105Z,21.00
2022-10-31T03:58:02.510Z,20.60
2022-10-31T03:59:02.103Z,22.20
2022-10-31T04:00:02.102Z,21.10
2022-10-31T04:01:02.075Z,20.60
2022-10-31T04:02:02.188Z,21.40
2022-10-31T04:03:02.225Z,21.20
2022-10-31T04:04:02.050Z,20.10
2022-10-31T04:05:02.071Z,21.80
2022-10-31T04:06:01.994Z,20.60
2022-10-31T04:07:01.991Z,21.30
2022-10-31T04:08:01.973Z,20.60
2022-10-31T04:09:01.979Z,21.30
2022-10-31T04:10:01.940Z,22.10
2022-10-31T04:11:01.948Z,21.10
2022-10-31T04:12:01.915Z,22.00
2022-10-31T04:13:02.302Z,21.40
2022-10-31T04:14:01.902Z,21.30
2022-10-31T04:15:01.890Z,21.40
2022-10-31T04:16:01.866Z,21.90
2022-10-31T04:17:01.866Z,22.80
2022-10-31T04:18:02.294Z,22.80
2022-10-31T04:19:01.826Z,22.60
2022-10-31T04:20:01.829Z,22.50
2022-10-31T04:21:01.798Z,21.80
2022-10-31T04:22:01.813Z,22.90
2022-10-31T04:23:01.793Z,23.00
2022-10-31T04:24:01.757Z,22.80
2022-10-31T04:25:01.733Z,22.20
2022-10-31T04:26:01.731Z,21.90
2022-10-31T04:27:01.740Z,21.40
2022-10-31T04:28:02.044Z,23.30
2022-10-31T04:29:01.704Z,21.60
2022-10-31T04:30:01.679Z,21.70
2022-10-31T04:31:01.659Z,21.90
2022-10-31T04:32:01.653Z,21.80
2022-10-31T04:33:02.095Z,20.90
2022-10-31T04:34:01.663Z,21.70
2022-10-31T04:35:01.605Z,21.90
2022-10-31T04:36:01.598Z,22.00
2022-10-31T04:37:01.578Z,21.30
2022-10-31T04:38:01.583Z,21.50
2022-10-31T04:39:01.562Z,22.00
2022-10-31T04:40:01.543Z,22.50
2022-10-31T04:41:01.532Z,22.30
2022-10-31T04:42:01.521Z,21.70
2022-10-31T04:43:01.963Z,21.70
2022-10-31T04:44:01.494Z,22.30
2022-10-31T04:45:01.473Z,21.80
2022-10-31T04:46:01.473Z,20.80
2022-10-31T04:47:01.453Z,21.40
2022-10-31T04:48:01.898Z,22.60
2022-10-31T04:49:01.427Z,23.00
2022-10-31T04:50:01.449Z,22.10
2022-10-31T04:51:01.407Z,22.60
2022-10-31T04:52:01.414Z,22.90
2022-10-31T04:53:01.377Z,21.50
2022-10-31T04:54:01.362Z,22.40
2022-10-31T04:55:01.377Z,22.10
2022-10-31T04:56:01.336Z,21.80
2022-10-31T04:57:01.342Z,21.20
2022-10-31T04:58:01.674Z,21.80
2022-10-31T04:59:01.299Z,21.30
2022-10-31T05:00:01.283Z,21.20
2022-10-31T05:01:01.330Z,21.20
2022-10-31T05:02:01.378Z,21.20
2022-10-31T05:03:01.628Z,21.50
2022-10-31T05:04:01.234Z,21.70
2022-10-31T05:05:01.208Z,20.70
2022-10-31T05:06:01.218Z,19.90
2022-10-31T05:07:01.187Z,20.10
2022-10-31T05:08:01.195Z,20.70
2022-10-31T05:09:01.154Z,22.30
2022-10-31T05:10:01.210Z,20.80
2022-10-31T05:11:04.193Z,20.90
2022-10-31T05:12:01.155Z,21.40
2022-10-31T05:13:01.645Z,19.80
2022-10-31T05:14:01.097Z,20.10
2022-10-31T05:15:01.084Z,20.90
2022-10-31T05:16:01.064Z,21.30
2022-10-31T05:17:01.047Z,21.10
2022-10-31T05:18:01.286Z,20.50
2022-10-31T05:19:01.022Z,21.60
2022-10-31T05:20:01.017Z,20.60
2022-10-31T05:21:00.997Z,20.60
2022-10-31T05:22:00.991Z,20.20
2022-10-31T05:23:01.006Z,21.70
2022-10-31T05:24:00.961Z,20.40
2022-10-31T05:25:00.943Z,20.50
2022-10-31T05:26:00.960Z,21.00
2022-10-31T05:27:00.915Z,20.60
2022-10-31T05:28:01.448Z,20.50
2022-10-31T05:29:00.892Z,20.40
2022-10-31T05:31:00.891Z,20.30
2022-10-31T05:32:00.852Z,19.80
2022-10-31T05:33:01.048Z,19.70
2022-10-31T05:34:00.822Z,20.20
2022-10-31T05:35:00.827Z,20.10
2022-10-31T05:36:00.907Z,20.40
2022-10-31T05:37:00.777Z,20.80
2022-10-31T05:38:00.912Z,20.70
2022-10-31T05:39:00.750Z,20.60
2022-10-31T05:40:05.378Z,22.00
2022-10-31T05:41:00.733Z,21.80
2022-10-31T05:42:00.751Z,20.70
2022-10-31T05:43:01.066Z,19.10
2022-10-31T05:44:00.719Z,19.60
2022-10-31T05:45:00.678Z,19.30
2022-10-31T05:46:00.657Z,18.90
2022-10-31T05:47:00.649Z,19.70
2022-10-31T05:48:00.994Z,19.30
2022-10-31T05:49:02.857Z,18.50
2022-10-31T05:50:00.616Z,18.70
2022-10-31T05:51:00.639Z,20.40
2022-10-31T05:52:00.575Z,20.60
2022-10-31T05:53:00.618Z,20.90
2022-10-31T05:54:00.548Z,19.50
2022-10-31T05:55:00.567Z,19.60
2022-10-31T05:56:00.532Z,20.40
2022-10-31T05:57:00.525Z,20.10
2022-10-31T05:58:00.969Z,19.40
2022-10-31T05:59:00.495Z,19.90
2022-10-31T06:00:00.568Z,19.10
2022-10-31T06:01:00.469Z,20.20
2022-10-31T06:02:00.455Z,19.40
2022-10-31T06:03:00.536Z,20.00
2022-10-31T06:04:00.420Z,20.00
2022-10-31T06:05:00.505Z,19.70
2022-10-31T06:06:00.393Z,19.00
2022-10-31T06:07:00.416Z,18.30
2022-10-31T06:08:00.738Z,18.60
2022-10-31T06:09:00.382Z,19.80
2022-10-31T06:10:00.358Z,19.20
2022-10-31T06:11:00.400Z,19.80
2022-10-31T06:12:00.313Z,19.30
2022-10-31T06:13:00.313Z,19.70
2022-10-31T06:14:00.291Z,19.80
2022-10-31T06:15:00.291Z,20.10
2022-10-31T06:16:00.258Z,20.10
2022-10-31T06:17:00.251Z,19.50
2022-10-31T06:18:00.569Z,19.90
2022-10-31T06:19:00.226Z,19.30
2022-10-31T06:20:00.230Z,17.50
2022-10-31T06:21:00.238Z,18.60
2022-10-31T06:22:00.199Z,18.30
2022-10-31T06:23:00.534Z,18.50
2022-10-31T06:24:00.165Z,19.00
2022-10-31T06:25:00.156Z,17.80
2022-10-31T06:26:00.131Z,17.80
2022-10-31T06:27:00.116Z,17.80
2022-10-31T06:28:00.304Z,18.80
2022-10-31T06:29:03.076Z,17.80
2022-10-31T06:30:00.088Z,18.90
2022-10-31T06:31:00.064Z,19.90
2022-10-31T06:32:00.044Z,19.70
2022-10-31T06:33:00.252Z,18.50
2022-10-31T06:34:00.017Z,20.70
2022-10-31T06:35:00.043Z,19.90
2022-10-31T06:35:59.987Z,20.40
2022-10-31T06:37:00.135Z,20.70
2022-10-31T06:38:00.344Z,20.90
2022-10-31T06:39:00.014Z,20.90
2022-10-31T06:39:59.942Z,20.30
2022-10-31T06:40:59.957Z,20.70
2022-10-31T06:41:59.919Z,21.90
2022-10-31T06:42:59.909Z,20.50
2022-10-31T06:44:03.464Z,21.40
2022-10-31T06:44:59.886Z,20.70
2022-10-31T06:45:59.876Z,20.70
2022-10-31T06:46:59.850Z,19.30
2022-10-31T06:48:59.816Z,19.50
2022-10-31T06:49:59.797Z,20.80
2022-10-31T06:50:59.878Z,19.60
2022-10-31T06:51:59.777Z,20.10
2022-10-31T06:52:59.854Z,19.00
2022-10-31T06:53:59.742Z,19.70
2022-10-31T06:54:59.787Z,19.70
2022-10-31T06:55:59.713Z,18.90
2022-10-31T06:56:59.737Z,19.20
2022-10-31T06:58:02.028Z,19.80
2022-10-31T06:58:59.685Z,20.30
2022-10-31T06:59:59.699Z,20.60
2022-10-31T07:00:59.725Z,20.30
2022-10-31T07:01:59.776Z,18.80
2022-10-31T07:02:59.649Z,18.90
2022-10-31T07:03:59.608Z,18.90
2022-10-31T07:04:59.628Z,18.50
2022-10-31T07:05:59.597Z,17.90
2022-10-31T07:06:59.611Z,18.10
2022-10-31T07:07:59.994Z,16.90
2022-10-31T07:08:59.636Z,17.50
2022-10-31T07:10:00.388Z,19.40
2022-10-31T07:10:59.627Z,19.20
2022-10-31T07:11:59.504Z,18.10
2022-10-31T07:12:59.818Z,18.70
2022-10-31T07:13:59.485Z,17.90
2022-10-31T07:14:59.506Z,17.00
2022-10-31T07:15:59.528Z,17.10
2022-10-31T07:16:59.443Z,17.20
2022-10-31T07:17:59.456Z,16.70
2022-10-31T07:18:59.413Z,17.20
2022-10-31T07:19:59.391Z,16.80
2022-10-31T07:20:59.381Z,15.70
2022-10-31T07:21:59.364Z,15.90
2022-10-31T07:22:59.491Z,16.60
2022-10-31T07:23:59.353Z,15.90
2022-10-31T07:24:59.434Z,16.10
2022-10-31T07:25:59.310Z,16.20
2022-10-31T07:27:59.711Z,16.20
2022-10-31T07:28:59.307Z,16.20
2022-10-31T07:29:59.349Z,16.80
2022-10-31T07:30:59.250Z,16.50
2022-10-31T07:31:59.226Z,16.50
2022-10-31T07:32:59.228Z,16.60
2022-10-31T07:33:59.234Z,17.00
2022-10-31T07:34:59.188Z,16.40
2022-10-31T07:35:59.172Z,17.60
2022-10-31T07:36:59.164Z,16.40
2022-10-31T07:37:59.544Z,16.20
2022-10-31T07:38:59.142Z,17.10
2022-10-31T07:39:59.117Z,16.40
2022-10-31T07:40:59.115Z,15.60
2022-10-31T07:41:59.095Z,15.90
2022-10-31T07:42:59.152Z,16.30
2022-10-31T07:43:59.074Z,15.10
2022-10-31T07:44:59.063Z,15.90
2022-10-31T07:45:59.036Z,15.70
2022-10-31T07:46:59.051Z,15.80
2022-10-31T07:47:59.490Z,14.90
2022-10-31T07:48:59.005Z,15.70
2022-10-31T07:49:58.993Z,15.70
2022-10-31T07:50:58.972Z,15.10
2022-10-31T07:51:58.984Z,16.00
2022-10-31T07:52:58.948Z,14.90
2022-10-31T07:53:58.953Z,14.70
2022-10-31T07:54:58.919Z,15.50
2022-10-31T07:55:58.940Z,15.90
2022-10-31T07:56:58.935Z,15.80
2022-10-31T07:57:59.291Z,14.70
2022-10-31T07:58:58.877Z,16.30
2022-10-31T07:59:58.912Z,15.20
2022-10-31T08:00:58.917Z,15.50
2022-10-31T08:01:58.823Z,15.30
2022-10-31T08:02:59.047Z,16.40
2022-10-31T08:03:58.873Z,15.50
2022-10-31T08:05:01.238Z,15.20
2022-10-31T08:05:58.787Z,15.80
2022-10-31T08:06:58.757Z,16.00
2022-10-31T08:07:59.102Z,16.30
2022-10-31T08:08:58.738Z,16.10
2022-10-31T08:09:58.713Z,16.10
2022-10-31T08:10:58.703Z,15.60
2022-10-31T08:11:58.732Z,15.90
2022-10-31T08:12:58.685Z,15.00
2022-10-31T08:13:58.658Z,15.50
2022-10-31T08:14:58.666Z,14.20
2022-10-31T08:15:58.638Z,15.00
2022-10-31T08:16:58.623Z,14.90
2022-10-31T08:17:58.951Z,14.80
2022-10-31T08:18:58.618Z,15.00
2022-10-31T08:19:58.615Z,16.20
2022-10-31T08:20:58.571Z,16.30
2022-10-31T08:21:58.563Z,16.20
2022-10-31T08:22:58.546Z,16.50
2022-10-31T08:23:58.578Z,16.30
2022-10-31T08:24:58.528Z,16.30
2022-10-31T08:25:58.503Z,15.80
2022-10-31T08:26:58.501Z,16.70
2022-10-31T08:27:58.987Z,16.80
2022-10-31T08:28:58.490Z,16.60
2022-10-31T08:29:58.577Z,17.80
2022-10-31T08:30:58.435Z,18.30
2022-10-31T08:31:58.450Z,18.80
2022-10-31T08:32:58.569Z,19.00
2022-10-31T08:33:58.411Z,19.80
2022-10-31T08:34:58.395Z,19.30
2022-10-31T08:35:58.370Z,19.70
2022-10-31T08:36:58.370Z,19.80
2022-10-31T08:37:58.637Z,19.00
2022-10-31T08:39:01.834Z,18.10
2022-10-31T08:39:58.311Z,18.40
2022-10-31T08:40:58.296Z,19.60
2022-10-31T08:41:58.289Z,20.20
2022-10-31T08:42:58.342Z,21.00
2022-10-31T08:43:58.321Z,19.90
2022-10-31T08:44:58.491Z,20.20
2022-10-31T08:45:58.260Z,20.70
2022-10-31T08:46:58.227Z,20.40
2022-10-31T08:47:58.678Z,19.80
2022-10-31T08:48:58.211Z,20.60
2022-10-31T08:49:58.171Z,20.40
2022-10-31T08:50:58.168Z,20.10
2022-10-31T08:51:58.197Z,21.00
2022-10-31T08:53:06.255Z,20.60
2022-10-31T08:53:58.143Z,20.20
2022-10-31T08:54:58.121Z,19.70
2022-10-31T08:55:58.096Z,20.20
2022-10-31T08:56:58.084Z,20.10
2022-10-31T08:57:58.446Z,18.80
2022-10-31T08:58:58.083Z,19.10
2022-10-31T08:59:58.071Z,18.70
2022-10-31T09:00:58.095Z,20.40
2022-10-31T09:01:58.150Z,19.80
2022-10-31T09:02:58.030Z,19.40
2022-10-31T09:03:57.991Z,19.30
2022-10-31T09:04:58.009Z,19.20
2022-10-31T09:05:58.032Z,19.60
2022-10-31T09:07:58.182Z,21.10
2022-10-31T09:08:57.944Z,20.30
2022-10-31T09:09:57.910Z,20.50
2022-10-31T09:10:57.892Z,20.40
2022-10-31T09:11:57.882Z,20.10
2022-10-31T09:12:57.876Z,19.90
2022-10-31T09:13:57.844Z,19.40
2022-10-31T09:14:57.856Z,19.80
2022-10-31T09:15:57.856Z,19.60
2022-10-31T09:16:57.811Z,20.30
2022-10-31T09:17:57.975Z,19.10
2022-10-31T09:18:57.813Z,20.80
2022-10-31T09:19:57.783Z,20.20
2022-10-31T09:20:57.801Z,20.40
2022-10-31T09:21:57.755Z,19.00
2022-10-31T09:22:57.751Z,19.60
2022-10-31T09:23:57.829Z,19.10
2022-10-31T09:24:57.709Z,20.30
2022-10-31T09:25:57.684Z,19.10
2022-10-31T09:26:57.795Z,19.50
2022-10-31T09:27:58.154Z,20.00
2022-10-31T09:28:57.697Z,20.40
2022-10-31T09:29:57.648Z,20.60
2022-10-31T09:30:57.617Z,19.90
2022-10-31T09:31:57.607Z,19.60
2022-10-31T09:32:57.625Z,20.20
2022-10-31T09:33:57.586Z,20.40
2022-10-31T09:34:57.644Z,21.00
2022-10-31T09:35:57.569Z,20.10
2022-10-31T09:36:57.543Z,21.00
2022-10-31T09:37:57.865Z,19.50
2022-10-31T09:38:57.542Z,19.90
2022-10-31T09:39:57.495Z,19.20
2022-10-31T09:40:57.554Z,19.50
2022-10-31T09:41:57.596Z,18.40
2022-10-31T09:42:57.505Z,20.50
2022-10-31T09:43:57.452Z,20.30
2022-10-31T09:44:57.451Z,20.00
2022-10-31T09:45:57.423Z,19.40
2022-10-31T09:46:57.448Z,19.90
2022-10-31T09:47:57.592Z,20.10
2022-10-31T09:48:57.397Z,19.40
2022-10-31T09:49:57.469Z,19.40
2022-10-31T09:50:57.369Z,20.00
2022-10-31T09:51:57.378Z,19.50
2022-10-31T09:52:57.496Z,19.10
2022-10-31T09:53:57.346Z,19.10
2022-10-31T09:54:57.319Z,19.50
2022-10-31T09:55:57.304Z,19.10
2022-10-31T09:56:57.295Z,18.80
2022-10-31T09:57:57.283Z,18.90
2022-10-31T09:58:57.270Z,17.90
2022-10-31T09:59:57.232Z,17.40
2022-10-31T10:00:57.295Z,17.30
2022-10-31T10:01:57.320Z,17.70
2022-10-31T10:02:57.358Z,17.60
2022-10-31T10:03:57.213Z,17.80
2022-10-31T10:04:57.335Z,17.30
2022-10-31T10:05:57.185Z,18.90
2022-10-31T10:06:57.176Z,17.60
2022-10-31T10:07:57.213Z,17.20
2022-10-31T10:08:57.121Z,18.10
2022-10-31T10:09:57.139Z,16.80
2022-10-31T10:10:57.112Z,16.90
2022-10-31T10:11:57.207Z,17.40
2022-10-31T10:12:57.245Z,16.40
2022-10-31T10:13:57.140Z,16.10
2022-10-31T10:14:57.386Z,16.90
2022-10-31T10:15:57.089Z,17.40
2022-10-31T10:16:57.004Z,17.20
2022-10-31T10:17:57.004Z,16.50
2022-10-31T10:18:56.990Z,16.70
2022-10-31T10:19:56.979Z,17.10
2022-10-31T10:20:56.985Z,16.80
2022-10-31T10:21:57.021Z,16.10
2022-10-31T10:22:56.998Z,15.50
2022-10-31T10:23:56.926Z,15.40
2022-10-31T10:24:56.932Z,16.80
2022-10-31T10:25:57.091Z,17.70
2022-10-31T10:26:56.877Z,15.80
2022-10-31T10:27:56.854Z,16.90
2022-10-31T10:28:56.856Z,16.40
2022-10-31T10:29:56.842Z,16.90
2022-10-31T10:30:56.831Z,16.60
2022-10-31T10:31:56.808Z,15.90
2022-10-31T10:32:56.792Z,16.30
2022-10-31T10:33:56.956Z,16.60
2022-10-31T10:34:56.769Z,14.80
2022-10-31T10:35:56.749Z,15.20
2022-10-31T10:36:56.738Z,14.20
2022-10-31T10:37:56.802Z,15.20
2022-10-31T10:38:56.718Z,15.30
2022-10-31T10:39:56.709Z,15.00
2022-10-31T10:40:56.680Z,15.10
2022-10-31T10:41:56.675Z,14.70
2022-10-31T10:42:56.666Z,15.70
2022-10-31T10:43:56.658Z,15.00
2022-10-31T10:44:56.678Z,14.70
2022-10-31T10:45:56.679Z,15.40
2022-10-31T10:46:56.629Z,14.80
2022-10-31T10:47:56.593Z,14.40
2022-10-31T10:48:56.600Z,14.00
2022-10-31T10:49:56.571Z,14.30
2022-10-31T10:50:56.671Z,14.30
2022-10-31T10:52:13.215Z,14.40
2022-10-31T10:52:56.901Z,15.20
2022-10-31T10:53:56.686Z,15.60
2022-10-31T10:54:56.637Z,14.50
2022-10-31T10:55:56.496Z,15.10
2022-10-31T10:56:57.072Z,15.30
2022-10-31T10:57:56.481Z,13.90
2022-10-31T10:58:56.470Z,15.40
2022-10-31T10:59:56.455Z,15.60
2022-10-31T11:00:56.535Z,15.30
2022-10-31T11:01:56.400Z,15.70
2022-10-31T11:02:56.393Z,15.40
2022-10-31T11:03:56.407Z,15.90
2022-10-31T11:04:56.378Z,16.10
2022-10-31T11:05:56.373Z,16.10
2022-10-31T11:06:56.346Z,14.80
2022-10-31T11:07:56.344Z,15.50
2022-10-31T11:08:56.329Z,14.90
2022-10-31T11:09:56.379Z,15.40
2022-10-31T11:10:56.290Z,15.30
2022-10-31T11:11:56.325Z,15.90
2022-10-31T11:12:56.258Z,14.60
2022-10-31T11:13:56.250Z,15.30
2022-10-31T11:14:56.288Z,15.50
2022-10-31T11:15:56.220Z,15.40
2022-10-31T11:16:56.217Z,15.50
2022-10-31T11:17:56.198Z,15.90
2022-10-31T11:18:56.202Z,15.30
2022-10-31T11:19:56.170Z,16.00
2022-10-31T11:20:56.156Z,16.00
2022-10-31T11:21:56.158Z,16.80
2022-10-31T11:22:56.127Z,15.40
2022-10-31T11:23:56.162Z,16.90
2022-10-31T11:24:56.116Z,15.70
2022-10-31T11:25:56.084Z,16.90
2022-10-31T11:26:56.245Z,16.60
2022-10-31T11:27:56.084Z,16.10
2022-10-31T11:28:56.089Z,16.60
2022-10-31T11:30:00.610Z,16.80
2022-10-31T11:30:56.135Z,16.90
2022-10-31T11:31:56.040Z,16.70
2022-10-31T11:32:55.987Z,17.30
2022-10-31T11:33:56.068Z,18.20
2022-10-31T11:34:55.981Z,18.30
2022-10-31T11:35:58.201Z,17.70
2022-10-31T11:36:55.953Z,18.00
2022-10-31T11:37:56.000Z,18.10
2022-10-31T11:38:55.929Z,17.80
2022-10-31T11:39:55.938Z,18.00
2022-10-31T11:40:55.921Z,18.10
2022-10-31T11:41:55.882Z,18.60
2022-10-31T11:42:55.869Z,17.70
2022-10-31T11:43:55.862Z,18.20
2022-10-31T11:44:55.847Z,18.50
2022-10-31T11:45:55.923Z,18.60
2022-10-31T11:46:55.806Z,18.00
2022-10-31T11:47:59.423Z,19.10
2022-10-31T11:48:55.955Z,17.70
2022-10-31T11:49:55.877Z,18.40
2022-10-31T11:50:55.756Z,19.30
2022-10-31T11:51:55.809Z,19.00
2022-10-31T11:53:59.836Z,19.00
2022-10-31T11:54:55.715Z,18.60
2022-10-31T11:55:55.691Z,18.70
2022-10-31T11:56:55.707Z,19.10
2022-10-31T11:57:55.704Z,19.70
2022-10-31T11:58:55.651Z,18.10
2022-10-31T11:59:55.643Z,19.00
2022-10-31T12:00:55.639Z,19.70
2022-10-31T12:01:55.808Z,17.90
2022-10-31T12:02:55.701Z,18.80
2022-10-31T12:03:55.596Z,18.80
2022-10-31T12:04:55.575Z,18.70
2022-10-31T12:05:55.590Z,19.00
2022-10-31T12:06:55.592Z,19.70
2022-10-31T12:07:58.113Z,18.50
2022-10-31T12:08:55.533Z,19.20
2022-10-31T12:09:55.529Z,19.10
2022-10-31T12:10:55.496Z,17.80
2022-10-31T12:11:55.489Z,17.90
2022-10-31T12:12:55.472Z,17.90
2022-10-31T12:13:58.682Z,17.90
2022-10-31T12:14:55.563Z,18.30
2022-10-31T12:15:55.448Z,17.90
2022-10-31T12:16:55.415Z,17.90
2022-10-31T12:17:55.468Z,17.40
2022-10-31T12:18:55.401Z,18.10
2022-10-31T12:19:56.295Z,16.60
2022-10-31T12:20:55.371Z,17.20
2022-10-31T12:21:55.396Z,18.10
2022-10-31T12:22:55.352Z,16.90
2022-10-31T12:23:55.346Z,17.30
2022-10-31T12:24:55.329Z,18.40
2022-10-31T12:25:55.309Z,16.50
2022-10-31T12:26:55.286Z,18.20
2022-10-31T12:27:55.274Z,18.00
2022-10-31T12:28:55.613Z,17.40
2022-10-31T12:29:55.272Z,17.50
2022-10-31T12:30:55.237Z,17.80
2022-10-31T12:31:55.272Z,17.10
2022-10-31T12:32:55.216Z,17.30
2022-10-31T12:33:55.217Z,18.00
2022-10-31T12:34:55.186Z,15.80
2022-10-31T12:35:55.171Z,16.80
2022-10-31T12:36:55.157Z,17.10
2022-10-31T12:37:55.142Z,17.00
2022-10-31T12:38:55.145Z,17.50
2022-10-31T12:39:55.132Z,16.90
2022-10-31T12:40:55.115Z,17.40
2022-10-31T12:41:55.096Z,17.30
2022-10-31T12:42:55.077Z,18.70
2022-10-31T12:43:55.079Z,17.00
2022-10-31T12:44:55.093Z,18.10
2022-10-31T12:45:55.060Z,17.00
2022-10-31T12:46:55.038Z,16.90
2022-10-31T12:47:55.078Z,16.20
2022-10-31T12:48:57.339Z,16.30
2022-10-31T12:49:54.992Z,16.30
2022-10-31T12:50:54.972Z,16.40
2022-10-31T12:51:54.967Z,17.20
2022-10-31T12:52:54.951Z,17.40
2022-10-31T12:53:54.949Z,17.30
2022-10-31T12:54:54.921Z,18.00
2022-10-31T12:55:54.944Z,17.40
2022-10-31T12:56:54.910Z,16.20